Time;durP1;ratioP1;P1;durP2;ratioP2;P2;SDS_P1;SDS_P2;PMS_P1;PMS_P2;Temp;Humidity;BMP_temperature;BMP_pressure;BME280_temperature;BME280_humidity;BME280_pressure;Samples;Min_cycle;Max_cycle;Signal;HPM_P1;HPM_P2
2022/08/29 00:00:58;;;;;;;7.37;5.40;;;;;;;;;;5090183;28;20227;-79
2022/08/29 00:03:25;;;;;;;12.77;6.10;;;;;;;;;;5090118;28;20232;-79
2022/08/29 00:05:52;;;;;;;12.33;6.07;;;;;;;;;;5055743;28;20629;-79
2022/08/29 00:08:20;;;;;;;13.60;6.50;;;;;;;;;;5072478;28;20204;-79
2022/08/29 00:10:47;;;;;;;11.07;5.90;;;;;;;;;;5089836;28;20205;-79
2022/08/29 00:13:14;;;;;;;10.83;6.30;;;;;;;;;;5090037;28;20201;-79
2022/08/29 00:15:43;;;;;;;8.83;5.77;;;;;;;;;;5089647;28;20200;-79
2022/08/29 00:18:10;;;;;;;7.83;5.53;;;;;;;;;;5090048;28;20219;-79
2022/08/29 00:20:37;;;;;;;10.77;5.70;;;;;;;;;;5072204;28;20204;-79
2022/08/29 00:23:05;;;;;;;14.27;6.33;;;;;;;;;;5081432;28;20284;-79
2022/08/29 00:25:32;;;;;;;19.37;7.10;;;;;;;;;;5097772;28;20204;-79
2022/08/29 00:27:59;;;;;;;12.23;6.60;;;;;;;;;;5074881;28;20227;-78
2022/08/29 00:30:26;;;;;;;8.00;6.10;;;;;;;;;;5093530;28;20204;-79
2022/08/29 00:32:55;;;;;;;10.13;6.13;;;;;;;;;;5075955;28;20208;-79
2022/08/29 00:35:24;;;;;;;12.00;5.93;;;;;;;;;;5075124;28;20196;-79
2022/08/29 00:37:53;;;;;;;11.57;6.53;;;;;;;;;;5093996;28;20208;-78
2022/08/29 00:40:22;;;;;;;8.60;6.67;;;;;;;;;;5075554;28;20291;-78
2022/08/29 00:42:49;;;;;;;9.83;5.60;;;;;;;;;;5104188;28;20223;-79
2022/08/29 00:45:18;;;;;;;8.97;5.43;;;;;;;;;;5061372;28;20213;-79
2022/08/29 00:47:48;;;;;;;11.53;6.47;;;;;;;;;;5093511;28;20196;-79
2022/08/29 00:50:23;;;;;;;10.50;6.27;;;;;;;;;;5094571;28;20748;-79
2022/08/29 00:52:50;;;;;;;8.23;6.17;;;;;;;;;;5105062;28;20242;-79
2022/08/29 00:55:21;;;;;;;9.47;5.27;;;;;;;;;;5093026;28;20678;-79
2022/08/29 00:57:55;;;;;;;9.50;6.23;;;;;;;;;;5093111;28;20200;-79
2022/08/29 01:00:23;;;;;;;8.93;5.97;;;;;;;;;;5092986;28;20200;-80
2022/08/29 01:02:50;;;;;;;12.43;6.37;;;;;;;;;;5075444;28;20718;-80
2022/08/29 01:05:19;;;;;;;11.53;7.03;;;;;;;;;;5092661;28;20209;-80
2022/08/29 01:07:46;;;;;;;9.43;6.20;;;;;;;;;;5078687;28;20201;-79
2022/08/29 01:12:14;;;;;;;13.47;6.73;;;;;;;;;;5075026;28;20628;-79
2022/08/29 01:13:00;;;;;;;15.07;7.47;;;;;;;;;;5100539;28;20203;-80
2022/08/29 01:15:29;;;;;;;11.17;6.30;;;;;;;;;;5099560;28;20675;-79
2022/08/29 01:17:57;;;;;;;8.80;6.30;;;;;;;;;;5091762;28;20269;-79
2022/08/29 01:20:33;;;;;;;6.97;5.33;;;;;;;;;;5074974;28;20622;-80
2022/08/29 01:23:03;;;;;;;10.57;6.90;;;;;;;;;;5092642;28;20639;-80
2022/08/29 01:25:35;;;;;;;9.23;6.30;;;;;;;;;;5074797;28;20208;-79
2022/08/29 01:28:07;;;;;;;9.47;6.40;;;;;;;;;;5092390;28;20199;-80
2022/08/29 01:30:34;;;;;;;11.97;6.00;;;;;;;;;;5091710;28;20209;-80
2022/08/29 01:33:01;;;;;;;12.43;7.00;;;;;;;;;;5089587;28;21170;-80
2022/08/29 01:35:29;;;;;;;10.13;7.47;;;;;;;;;;5062394;28;20232;-79
2022/08/29 01:37:56;;;;;;;7.27;5.67;;;;;;;;;;5090503;28;20679;-79
2022/08/29 01:40:29;;;;;;;9.77;5.93;;;;;;;;;;5091899;28;20216;-81
2022/08/29 01:42:58;;;;;;;9.80;7.07;;;;;;;;;;5091525;28;20247;-80
2022/08/29 01:45:25;;;;;;;12.10;7.37;;;;;;;;;;5065070;28;20247;-80
2022/08/29 01:47:52;;;;;;;6.70;6.10;;;;;;;;;;5074535;28;20196;-80
2022/08/29 01:50:19;;;;;;;10.90;6.77;;;;;;;;;;5091807;28;20218;-79
2022/08/29 01:52:46;;;;;;;12.40;6.60;;;;;;;;;;5057793;28;20204;-80
2022/08/29 01:55:13;;;;;;;10.70;6.63;;;;;;;;;;5091189;28;20228;-80
2022/08/29 01:57:41;;;;;;;11.70;7.10;;;;;;;;;;5091468;28;20208;-80
2022/08/29 02:00:12;;;;;;;10.93;7.33;;;;;;;;;;5074131;28;20647;-80
2022/08/29 02:02:39;;;;;;;12.53;6.43;;;;;;;;;;5073911;28;20713;-80
2022/08/29 02:05:07;;;;;;;11.53;6.47;;;;;;;;;;5091960;28;20199;-80
2022/08/29 02:07:34;;;;;;;11.23;7.27;;;;;;;;;;5091635;28;20250;-80
2022/08/29 02:10:02;;;;;;;13.87;5.73;;;;;;;;;;5056783;28;20208;-80
2022/08/29 02:12:30;;;;;;;14.80;6.87;;;;;;;;;;5106142;28;20199;-80
2022/08/29 02:14:57;;;;;;;9.07;6.00;;;;;;;;;;5083125;28;20202;-80
2022/08/29 02:17:26;;;;;;;8.03;6.27;;;;;;;;;;5078188;28;20697;-80
2022/08/29 02:19:53;;;;;;;12.77;6.27;;;;;;;;;;5071629;28;20682;-79
2022/08/29 02:22:20;;;;;;;11.27;6.67;;;;;;;;;;5072320;28;20208;-78
2022/08/29 02:24:47;;;;;;;7.87;5.73;;;;;;;;;;5091040;28;20205;-79
2022/08/29 02:27:14;;;;;;;13.73;6.90;;;;;;;;;;5040167;28;20230;-79
2022/08/29 02:29:41;;;;;;;13.60;6.77;;;;;;;;;;5091527;28;20200;-79
2022/08/29 02:32:11;;;;;;;13.17;7.33;;;;;;;;;;5073378;28;20254;-80
2022/08/29 02:34:39;;;;;;;10.90;7.27;;;;;;;;;;5073799;28;20685;-79
2022/08/29 02:37:07;;;;;;;16.00;5.93;;;;;;;;;;5090435;28;20682;-80
2022/08/29 02:39:34;;;;;;;11.67;7.57;;;;;;;;;;5091524;28;20304;-80
2022/08/29 02:42:01;;;;;;;12.90;6.73;;;;;;;;;;5073271;28;20200;-80
2022/08/29 02:44:28;;;;;;;13.27;7.27;;;;;;;;;;5091068;28;20224;-80
2022/08/29 02:46:55;;;;;;;12.43;6.80;;;;;;;;;;5091252;28;20279;-80
2022/08/29 02:49:22;;;;;;;11.70;6.27;;;;;;;;;;5090444;28;20224;-80
2022/08/29 02:51:50;;;;;;;12.07;6.73;;;;;;;;;;5090869;28;20208;-80
2022/08/29 02:54:17;;;;;;;11.07;6.73;;;;;;;;;;5091095;28;20197;-80
2022/08/29 02:56:44;;;;;;;10.73;6.77;;;;;;;;;;5071756;28;20224;-80
2022/08/29 02:59:10;;;;;;;10.83;7.53;;;;;;;;;;5090799;28;20205;-80
2022/08/29 03:01:38;;;;;;;12.03;7.50;;;;;;;;;;5089738;28;20200;-80
2022/08/29 03:04:05;;;;;;;13.83;7.27;;;;;;;;;;5090520;28;20232;-80
2022/08/29 03:06:32;;;;;;;11.77;7.77;;;;;;;;;;5090993;28;20292;-79
2022/08/29 03:09:00;;;;;;;13.70;6.67;;;;;;;;;;5090617;28;20207;-80
2022/08/29 03:11:28;;;;;;;12.10;8.27;;;;;;;;;;5090163;28;20257;-83
2022/08/29 03:13:55;;;;;;;9.87;7.07;;;;;;;;;;5091324;28;20694;-89
2022/08/29 03:16:22;;;;;;;12.17;7.43;;;;;;;;;;5080521;28;20219;-89
2022/08/29 03:18:49;;;;;;;9.67;6.57;;;;;;;;;;5080902;28;20200;-88
2022/08/29 03:21:18;;;;;;;12.37;6.97;;;;;;;;;;5065091;28;20204;-88
2022/08/29 03:23:45;;;;;;;6.83;6.03;;;;;;;;;;5091016;28;20232;-86
2022/08/29 03:26:14;;;;;;;7.90;7.10;;;;;;;;;;5058971;28;20681;-87
2022/08/29 03:28:40;;;;;;;11.17;8.03;;;;;;;;;;5090537;28;20227;-88
2022/08/29 03:31:07;;;;;;;11.47;7.87;;;;;;;;;;5072139;28;20261;-88
2022/08/29 03:33:34;;;;;;;10.07;6.80;;;;;;;;;;5091938;28;20211;-89
2022/08/29 03:36:01;;;;;;;9.37;6.90;;;;;;;;;;5091212;28;20200;-89
2022/08/29 03:38:28;;;;;;;12.97;7.23;;;;;;;;;;5091994;28;20226;-89
2022/08/29 03:40:54;;;;;;;10.63;6.90;;;;;;;;;;5091649;28;20196;-88
2022/08/29 03:43:23;;;;;;;11.00;6.70;;;;;;;;;;5091712;28;20231;-88
2022/08/29 03:45:50;;;;;;;9.47;5.97;;;;;;;;;;5091245;28;20201;-89
2022/08/29 03:48:17;;;;;;;11.40;6.87;;;;;;;;;;5091909;28;20681;-89
2022/08/29 03:50:43;;;;;;;15.33;6.30;;;;;;;;;;5091817;28;20694;-89
2022/08/29 03:53:10;;;;;;;9.83;6.87;;;;;;;;;;5091505;28;20211;-89
2022/08/29 03:55:37;;;;;;;9.27;6.20;;;;;;;;;;5090901;28;20231;-89
2022/08/29 03:58:04;;;;;;;13.60;6.43;;;;;;;;;;5091567;28;20204;-89
2022/08/29 04:00:33;;;;;;;7.37;6.70;;;;;;;;;;5090987;28;20223;-89
2022/08/29 04:02:59;;;;;;;9.03;5.80;;;;;;;;;;5094812;28;20223;-85
2022/08/29 04:05:26;;;;;;;12.53;5.80;;;;;;;;;;5090492;28;20256;-90
2022/08/29 04:07:56;;;;;;;9.87;5.93;;;;;;;;;;5095240;28;20207;-90
2022/08/29 04:10:25;;;;;;;15.50;8.13;;;;;;;;;;5095283;28;20268;-90
2022/08/29 04:12:52;;;;;;;7.43;6.60;;;;;;;;;;5080947;28;20219;-90
2022/08/29 04:15:19;;;;;;;11.17;7.47;;;;;;;;;;5095359;28;20686;-86
2022/08/29 04:17:48;;;;;;;8.90;6.30;;;;;;;;;;5095136;28;20200;-89
2022/08/29 04:20:15;;;;;;;9.63;6.90;;;;;;;;;;5095186;28;20204;-90
2022/08/29 04:22:43;;;;;;;15.27;7.00;;;;;;;;;;5095147;28;20666;-91
2022/08/29 04:25:13;;;;;;;10.07;6.40;;;;;;;;;;5088057;28;20236;-90
2022/08/29 04:27:41;;;;;;;11.60;6.97;;;;;;;;;;5094872;28;20200;-88
2022/08/29 04:30:10;;;;;;;12.27;6.70;;;;;;;;;;5094899;28;20208;-90
2022/08/29 04:32:37;;;;;;;9.80;6.33;;;;;;;;;;5094903;28;20262;-90
2022/08/29 04:35:07;;;;;;;14.60;6.90;;;;;;;;;;5095179;28;20211;-89
2022/08/29 04:37:34;;;;;;;12.13;6.60;;;;;;;;;;5094996;28;20654;-90
2022/08/29 04:40:01;;;;;;;8.97;6.37;;;;;;;;;;5094463;28;20299;-88
2022/08/29 04:42:28;;;;;;;9.90;6.70;;;;;;;;;;5094590;28;20200;-90
2022/08/29 04:44:56;;;;;;;10.93;6.63;;;;;;;;;;5094473;28;20717;-89
2022/08/29 04:47:22;;;;;;;10.67;6.07;;;;;;;;;;5095177;28;20207;-89
2022/08/29 04:49:54;;;;;;;12.27;6.83;;;;;;;;;;5094400;28;20278;-88
2022/08/29 04:52:23;;;;;;;11.77;6.97;;;;;;;;;;5094873;28;20675;-89
2022/08/29 04:54:50;;;;;;;10.70;6.33;;;;;;;;;;5094136;28;20208;-87
2022/08/29 04:57:17;;;;;;;18.50;6.97;;;;;;;;;;5093056;28;20295;-89
2022/08/29 04:59:44;;;;;;;11.70;6.90;;;;;;;;;;5094167;28;20208;-89
2022/08/29 05:02:11;;;;;;;10.20;6.93;;;;;;;;;;5094145;28;20682;-89
2022/08/29 05:04:37;;;;;;;11.40;6.03;;;;;;;;;;5093940;28;20228;-90
2022/08/29 05:07:04;;;;;;;9.47;6.87;;;;;;;;;;5093879;28;20215;-86
2022/08/29 05:09:33;;;;;;;9.23;7.13;;;;;;;;;;5094212;28;20258;-89
2022/08/29 05:12:00;;;;;;;13.80;7.40;;;;;;;;;;5094217;28;20212;-89
2022/08/29 05:14:27;;;;;;;10.57;6.83;;;;;;;;;;5094297;28;20237;-88
2022/08/29 05:16:54;;;;;;;13.10;6.70;;;;;;;;;;5093849;28;20254;-89
2022/08/29 05:19:21;;;;;;;8.63;6.90;;;;;;;;;;5094002;28;20208;-86
2022/08/29 05:21:47;;;;;;;12.23;7.20;;;;;;;;;;5093526;28;20201;-88
2022/08/29 05:24:14;;;;;;;11.70;7.77;;;;;;;;;;5093713;28;20224;-89
2022/08/29 05:26:44;;;;;;;8.97;7.40;;;;;;;;;;5093916;28;20273;-89
2022/08/29 05:29:12;;;;;;;11.33;7.23;;;;;;;;;;5093687;28;20269;-89
2022/08/29 05:31:40;;;;;;;8.43;7.60;;;;;;;;;;5093835;28;20204;-89
2022/08/29 05:34:09;;;;;;;15.70;7.10;;;;;;;;;;5093952;28;20200;-88
2022/08/29 05:36:36;;;;;;;9.47;7.30;;;;;;;;;;5093310;28;20198;-87
2022/08/29 05:39:03;;;;;;;16.07;6.83;;;;;;;;;;5093688;28;20204;-88
2022/08/29 05:41:30;;;;;;;10.23;7.60;;;;;;;;;;5093407;28;20201;-87
2022/08/29 05:43:59;;;;;;;9.17;6.80;;;;;;;;;;5093629;28;20703;-88
2022/08/29 05:46:26;;;;;;;9.47;7.07;;;;;;;;;;5107873;28;20204;-88
2022/08/29 05:48:53;;;;;;;11.07;6.30;;;;;;;;;;5092712;28;20683;-86
2022/08/29 05:51:21;;;;;;;16.07;6.73;;;;;;;;;;5093128;28;20258;-88
2022/08/29 05:53:48;;;;;;;13.53;6.57;;;;;;;;;;5093624;28;20208;-88
2022/08/29 05:56:22;;;;;;;9.17;6.50;;;;;;;;;;5092938;28;20702;-89
2022/08/29 05:58:49;;;;;;;18.47;7.53;;;;;;;;;;5093443;28;20294;-88
2022/08/29 06:01:21;;;;;;;14.20;6.27;;;;;;;;;;5092786;28;20208;-87
2022/08/29 06:03:48;;;;;;;19.83;6.47;;;;;;;;;;5093096;28;20690;-88
2022/08/29 06:06:16;;;;;;;13.33;5.93;;;;;;;;;;5100715;28;20206;-88
2022/08/29 06:08:43;;;;;;;13.57;6.10;;;;;;;;;;5099468;28;20644;-89
2022/08/29 06:11:14;;;;;;;12.20;5.90;;;;;;;;;;5092653;28;20208;-89
2022/08/29 06:13:41;;;;;;;10.57;6.03;;;;;;;;;;5092747;28;20266;-89
2022/08/29 06:16:11;;;;;;;8.83;7.00;;;;;;;;;;5074356;28;20212;-89
2022/08/29 06:18:40;;;;;;;16.80;5.97;;;;;;;;;;5092773;28;20682;-89
2022/08/29 06:21:08;;;;;;;11.80;6.57;;;;;;;;;;5092737;28;20291;-88
2022/08/29 06:23:35;;;;;;;9.33;6.00;;;;;;;;;;5092238;28;20208;-89
2022/08/29 06:26:02;;;;;;;15.30;6.10;;;;;;;;;;5091572;28;20683;-89
2022/08/29 06:28:29;;;;;;;13.77;7.57;;;;;;;;;;5092809;28;20203;-89
2022/08/29 06:30:56;;;;;;;12.57;6.27;;;;;;;;;;5092554;28;20204;-88
2022/08/29 06:33:23;;;;;;;8.97;6.77;;;;;;;;;;5092672;28;20208;-89
2022/08/29 06:35:54;;;;;;;10.40;6.13;;;;;;;;;;5092686;28;20204;-89
2022/08/29 06:38:21;;;;;;;10.67;5.60;;;;;;;;;;5092269;28;20207;-89
2022/08/29 06:40:48;;;;;;;15.33;6.40;;;;;;;;;;5092070;28;20207;-87
2022/08/29 06:43:14;;;;;;;12.73;5.47;;;;;;;;;;5092351;28;20204;-89
2022/08/29 06:45:42;;;;;;;17.57;6.70;;;;;;;;;;5091772;28;20224;-88
2022/08/29 06:48:09;;;;;;;15.87;6.47;;;;;;;;;;5092085;28;20732;-89
2022/08/29 06:50:37;;;;;;;11.20;6.47;;;;;;;;;;5092248;28;20223;-88
2022/08/29 06:53:06;;;;;;;15.90;5.90;;;;;;;;;;5091996;28;20204;-88
2022/08/29 06:55:35;;;;;;;8.60;5.83;;;;;;;;;;5091825;28;20239;-89
2022/08/29 06:58:01;;;;;;;6.50;5.47;;;;;;;;;;5092175;28;20204;-89
2022/08/29 07:00:28;;;;;;;7.80;5.80;;;;;;;;;;5091910;28;20207;-89
2022/08/29 07:02:55;;;;;;;14.00;6.40;;;;;;;;;;5092611;28;20211;-88
2022/08/29 07:05:22;;;;;;;9.93;6.07;;;;;;;;;;5091773;28;20228;-88
2022/08/29 07:07:50;;;;;;;17.63;6.80;;;;;;;;;;5091641;28;20217;-89
2022/08/29 07:10:18;;;;;;;10.27;6.37;;;;;;;;;;5104383;28;20200;-89
2022/08/29 07:12:45;;;;;;;14.07;6.77;;;;;;;;;;5093058;28;20226;-89
2022/08/29 07:15:12;;;;;;;14.77;6.07;;;;;;;;;;5091719;28;20265;-89
2022/08/29 07:17:39;;;;;;;13.33;6.67;;;;;;;;;;5091668;28;20277;-88
2022/08/29 07:20:07;;;;;;;14.37;6.67;;;;;;;;;;5101494;28;20208;-87
2022/08/29 07:22:34;;;;;;;16.27;7.43;;;;;;;;;;5096032;28;20233;-86
2022/08/29 07:25:01;;;;;;;11.23;6.53;;;;;;;;;;5091244;28;20223;-88
2022/08/29 07:27:30;;;;;;;12.97;6.73;;;;;;;;;;5091838;28;20238;-87
2022/08/29 07:29:56;;;;;;;14.63;6.07;;;;;;;;;;5105445;28;20200;-88
2022/08/29 07:32:23;;;;;;;13.23;7.03;;;;;;;;;;5104457;28;20694;-89
2022/08/29 07:34:50;;;;;;;8.13;5.63;;;;;;;;;;5092356;28;20200;-87
2022/08/29 07:37:17;;;;;;;12.25;6.57;;;;;;;;;;5091079;28;20215;-88
2022/08/29 07:39:44;;;;;;;12.77;6.22;;;;;;;;;;5091030;28;20208;-88
2022/08/29 07:42:11;;;;;;;10.00;6.03;;;;;;;;;;5100364;28;20204;-88
2022/08/29 07:44:41;;;;;;;10.50;6.80;;;;;;;;;;5095576;28;20227;-88
2022/08/29 07:47:08;;;;;;;18.70;6.70;;;;;;;;;;5091209;28;20215;-88
2022/08/29 07:49:35;;;;;;;12.65;6.38;;;;;;;;;;5091146;28;20642;-88
2022/08/29 07:52:03;;;;;;;11.10;6.40;;;;;;;;;;5091190;28;20249;-89
2022/08/29 07:54:29;;;;;;;17.25;7.78;;;;;;;;;;5091849;28;20203;-88
2022/08/29 07:56:58;;;;;;;17.80;7.03;;;;;;;;;;5091670;28;20228;-88
2022/08/29 07:59:25;;;;;;;11.18;6.15;;;;;;;;;;5091545;28;20227;-87
2022/08/29 08:01:53;;;;;;;19.65;8.20;;;;;;;;;;5091385;28;20204;-88
2022/08/29 08:04:20;;;;;;;10.98;6.68;;;;;;;;;;5090467;28;20227;-87
2022/08/29 08:06:47;;;;;;;20.02;6.53;;;;;;;;;;5091189;28;20210;-87
2022/08/29 08:09:14;;;;;;;11.70;6.28;;;;;;;;;;5091205;28;20192;-89
2022/08/29 08:11:41;;;;;;;19.05;6.72;;;;;;;;;;5091617;28;20595;-88
2022/08/29 08:14:08;;;;;;;13.82;7.25;;;;;;;;;;5091333;28;20204;-87
2022/08/29 08:16:38;;;;;;;7.60;5.93;;;;;;;;;;5090669;28;20204;-88
2022/08/29 08:19:07;;;;;;;15.63;6.38;;;;;;;;;;5090437;28;20694;-89
2022/08/29 08:21:34;;;;;;;13.07;6.68;;;;;;;;;;5090800;28;20675;-88
2022/08/29 08:24:02;;;;;;;12.05;6.30;;;;;;;;;;5090508;28;20200;-88
2022/08/29 08:26:29;;;;;;;14.55;6.18;;;;;;;;;;5090595;28;20204;-88
2022/08/29 08:28:56;;;;;;;12.05;6.45;;;;;;;;;;5090889;28;20295;-89
2022/08/29 08:31:23;;;;;;;12.50;6.93;;;;;;;;;;5090383;28;20637;-89
2022/08/29 08:33:50;;;;;;;16.10;6.85;;;;;;;;;;5091275;28;20628;-89
2022/08/29 08:36:21;;;;;;;11.73;7.03;;;;;;;;;;5090471;28;20220;-89
2022/08/29 08:38:49;;;;;;;21.30;7.85;;;;;;;;;;5090896;28;20231;-88
2022/08/29 08:41:25;;;;;;;12.48;6.40;;;;;;;;;;5090615;28;20208;-88
2022/08/29 08:43:54;;;;;;;14.65;5.30;;;;;;;;;;5090719;28;20196;-86
2022/08/29 08:46:28;;;;;;;21.05;6.70;;;;;;;;;;5090629;28;20610;-87
2022/08/29 08:48:59;;;;;;;16.92;6.68;;;;;;;;;;5094158;28;20202;-88
2022/08/29 08:51:30;;;;;;;11.10;6.70;;;;;;;;;;5094073;28;20288;-89
2022/08/29 08:53:58;;;;;;;14.10;7.13;;;;;;;;;;5094379;28;20207;-88
2022/08/29 08:56:30;;;;;;;13.93;7.45;;;;;;;;;;5093951;28;20243;-89
2022/08/29 08:59:02;;;;;;;10.13;6.78;;;;;;;;;;5094042;28;20204;-89
2022/08/29 09:01:32;;;;;;;10.68;6.30;;;;;;;;;;5094323;28;20268;-88
2022/08/29 09:04:22;;;;;;;15.30;7.18;;;;;;;;;;5094162;28;20204;-89
2022/08/29 09:07:04;;;;;;;19.88;7.07;;;;;;;;;;5090702;28;20204;-87
2022/08/29 09:09:42;;;;;;;11.20;5.75;;;;;;;;;;5080822;28;20215;-87
2022/08/29 09:12:21;;;;;;;10.93;6.65;;;;;;;;;;5093915;28;20207;-88
2022/08/29 09:15:00;;;;;;;10.80;6.32;;;;;;;;;;5094084;28;20653;-89
2022/08/29 09:17:31;;;;;;;13.35;6.68;;;;;;;;;;5093674;28;20215;-88
2022/08/29 09:19:58;;;;;;;9.60;5.70;;;;;;;;;;5093608;28;20204;-89
2022/08/29 09:22:29;;;;;;;13.77;6.25;;;;;;;;;;5093867;28;20222;-89
2022/08/29 09:24:58;;;;;;;12.07;5.68;;;;;;;;;;5093521;28;20237;-89
2022/08/29 09:27:27;;;;;;;11.75;6.35;;;;;;;;;;5093542;28;20200;-90
2022/08/29 09:30:08;;;;;;;12.73;5.63;;;;;;;;;;5079290;28;20200;-89
2022/08/29 09:32:35;;;;;;;11.95;5.90;;;;;;;;;;5093537;28;20212;-86
2022/08/29 09:35:18;;;;;;;7.80;5.65;;;;;;;;;;5093146;28;20572;-88
2022/08/29 09:37:56;;;;;;;13.15;6.57;;;;;;;;;;5108124;28;20199;-89
2022/08/29 09:40:23;;;;;;;8.65;5.28;;;;;;;;;;5093141;28;20644;-89
2022/08/29 09:43:00;;;;;;;10.27;5.38;;;;;;;;;;5093406;28;20200;-88
2022/08/29 09:45:27;;;;;;;11.35;5.88;;;;;;;;;;5092893;28;20227;-89
2022/08/29 09:48:08;;;;;;;12.60;5.57;;;;;;;;;;5093167;28;20207;-90
2022/08/29 09:50:35;;;;;;;8.82;5.43;;;;;;;;;;5092709;28;20210;-89
2022/08/29 09:53:04;;;;;;;9.55;5.90;;;;;;;;;;5093703;28;20208;-89
2022/08/29 09:55:34;;;;;;;16.20;5.45;;;;;;;;;;5093132;28;20227;-88
2022/08/29 09:58:05;;;;;;;12.98;5.82;;;;;;;;;;5092902;28;20617;-90
2022/08/29 10:00:34;;;;;;;10.48;6.18;;;;;;;;;;5092340;28;20204;-89
2022/08/29 10:03:04;;;;;;;10.85;5.85;;;;;;;;;;5092885;28;20207;-89
2022/08/29 10:05:43;;;;;;;7.85;4.85;;;;;;;;;;5092400;28;20239;-87
2022/08/29 10:08:29;;;;;;;12.90;6.28;;;;;;;;;;5092957;28;20283;-87
2022/08/29 10:10:58;;;;;;;15.50;11.07;;;;;;;;;;5092913;28;20200;-87
2022/08/29 10:13:30;;;;;;;13.45;5.78;;;;;;;;;;5092778;28;20208;-87
2022/08/29 10:16:01;;;;;;;13.07;5.72;;;;;;;;;;5092622;28;20200;-87
2022/08/29 10:18:36;;;;;;;10.30;5.22;;;;;;;;;;5092318;28;20598;-87
2022/08/29 10:21:12;;;;;;;11.52;6.32;;;;;;;;;;5092845;28;20196;-87
2022/08/29 10:23:48;;;;;;;11.38;6.57;;;;;;;;;;5092459;28;20773;-87
2022/08/29 10:26:22;;;;;;;8.75;6.07;;;;;;;;;;5091900;28;20216;-84
2022/08/29 10:28:55;;;;;;;12.65;5.28;;;;;;;;;;5092369;28;20213;-86
2022/08/29 10:31:27;;;;;;;13.73;6.63;;;;;;;;;;5092393;28;20207;-88
2022/08/29 10:34:08;;;;;;;10.10;5.88;;;;;;;;;;5092584;28;20204;-88
2022/08/29 10:36:37;;;;;;;10.63;5.07;;;;;;;;;;5091676;28;20212;-88
2022/08/29 10:39:12;;;;;;;12.73;6.45;;;;;;;;;;5092440;28;20211;-88
2022/08/29 10:41:41;;;;;;;13.73;6.95;;;;;;;;;;5092558;28;20200;-89
2022/08/29 10:44:22;;;;;;;19.23;7.97;;;;;;;;;;5092164;28;20211;-86
2022/08/29 10:46:56;;;;;;;17.00;8.18;;;;;;;;;;5091788;28;20644;-87
2022/08/29 10:49:38;;;;;;;13.43;8.80;;;;;;;;;;5091968;28;20254;-87
2022/08/29 10:52:10;;;;;;;13.48;9.32;;;;;;;;;;5085877;28;20230;-86
2022/08/29 10:54:51;;;;;;;14.57;7.32;;;;;;;;;;5098255;28;20204;-87
2022/08/29 10:57:41;;;;;;;13.73;7.38;;;;;;;;;;5091904;28;20239;-86
2022/08/29 11:00:12;;;;;;;15.25;6.43;;;;;;;;;;5091990;28;20208;-82
2022/08/29 11:02:44;;;;;;;16.15;6.72;;;;;;;;;;5091833;28;20262;-84
2022/08/29 11:05:15;;;;;;;14.75;7.25;;;;;;;;;;5091590;28;20200;-86
2022/08/29 11:07:45;;;;;;;12.13;6.10;;;;;;;;;;5091588;28;20200;-85
2022/08/29 11:10:17;;;;;;;14.25;7.43;;;;;;;;;;5090886;28;20704;-88
2022/08/29 11:12:50;;;;;;;14.52;6.10;;;;;;;;;;5091839;28;20200;-85
2022/08/29 11:15:20;;;;;;;15.93;6.88;;;;;;;;;;5091041;28;20208;-86
2022/08/29 11:17:52;;;;;;;13.40;5.88;;;;;;;;;;5091250;28;20224;-87
2022/08/29 11:20:21;;;;;;;11.98;6.07;;;;;;;;;;5091256;28;20204;-86
2022/08/29 11:22:50;;;;;;;9.50;6.07;;;;;;;;;;5090877;28;20192;-86
2022/08/29 11:25:20;;;;;;;12.50;6.28;;;;;;;;;;5090938;28;20204;-86
2022/08/29 11:27:53;;;;;;;10.73;5.63;;;;;;;;;;5091321;28;20212;-89
2022/08/29 11:30:23;;;;;;;9.98;4.53;;;;;;;;;;5090846;28;20682;-91
2022/08/29 11:32:56;;;;;;;13.52;6.32;;;;;;;;;;5090654;28;20597;-86
2022/08/29 11:35:26;;;;;;;13.43;6.40;;;;;;;;;;5091213;28;20203;-90
2022/08/29 11:38:26;;;;;;;10.45;5.07;;;;;;;;;;5090653;28;20286;-90
2022/08/29 11:41:24;;;;;;;13.02;6.25;;;;;;;;;;5090661;28;20203;-87
2022/08/29 11:43:54;;;;;;;11.25;5.25;;;;;;;;;;5079775;28;20634;-87
2022/08/29 11:46:35;;;;;;;17.10;5.57;;;;;;;;;;5090289;28;20310;-86
2022/08/29 11:49:20;;;;;;;9.85;5.07;;;;;;;;;;5090809;28;20200;-87
2022/08/29 11:51:50;;;;;;;14.77;4.93;;;;;;;;;;5090767;28;20200;-87
2022/08/29 11:54:50;;;;;;;7.47;4.72;;;;;;;;;;5090700;28;20197;-88
2022/08/29 11:57:45;;;;;;;11.57;5.72;;;;;;;;;;5094721;28;20199;-88
2022/08/29 12:00:51;;;;;;;8.10;4.80;;;;;;;;;;5097438;28;20266;-88
2022/08/29 12:03:51;;;;;;;9.85;5.72;;;;;;;;;;5082217;28;20286;-88
2022/08/29 12:06:31;;;;;;;11.00;5.22;;;;;;;;;;5078254;28;20223;-89
2022/08/29 12:09:07;;;;;;;10.45;5.18;;;;;;;;;;5090937;28;20266;-87
2022/08/29 12:12:12;;;;;;;12.18;5.13;;;;;;;;;;5091136;28;20674;-88
2022/08/29 12:14:43;;;;;;;11.00;4.80;;;;;;;;;;5077218;28;20286;-88
2022/08/29 12:17:38;;;;;;;11.63;5.13;;;;;;;;;;5090334;28;20201;-89
2022/08/29 12:20:16;;;;;;;10.75;5.32;;;;;;;;;;5079862;28;20679;-88
2022/08/29 12:22:53;;;;;;;12.25;5.10;;;;;;;;;;5106520;28;20231;-86
2022/08/29 12:25:43;;;;;;;10.95;5.05;;;;;;;;;;5094026;28;20199;-86
2022/08/29 12:28:32;;;;;;;16.55;5.90;;;;;;;;;;5072540;28;20232;-88
2022/08/29 12:31:43;;;;;;;9.55;4.45;;;;;;;;;;5094095;28;20204;-88
2022/08/29 12:34:21;;;;;;;12.38;5.82;;;;;;;;;;5025644;28;20678;-88
2022/08/29 12:37:00;;;;;;;12.38;5.28;;;;;;;;;;4999397;28;20207;-87
2022/08/29 12:39:43;;;;;;;17.80;5.32;;;;;;;;;;5049613;28;20274;-87
2022/08/29 12:42:21;;;;;;;9.88;8.85;;;;;;;;;;5094284;28;20208;-88
2022/08/29 12:44:59;;;;;;;13.27;6.35;;;;;;;;;;5093955;28;20652;-86
2022/08/29 12:47:29;;;;;;;12.40;5.53;;;;;;;;;;5094058;28;20228;-88
2022/08/29 12:49:58;;;;;;;16.38;7.20;;;;;;;;;;5075580;28;20200;-85
2022/08/29 12:52:27;;;;;;;23.92;21.52;;;;;;;;;;5093728;28;20207;-87
2022/08/29 12:54:55;;;;;;;11.63;6.53;;;;;;;;;;5093504;28;20236;-87
2022/08/29 12:57:24;;;;;;;10.57;5.68;;;;;;;;;;5093578;28;20670;-86
2022/08/29 12:59:52;;;;;;;12.13;5.72;;;;;;;;;;5093767;28;20604;-88
2022/08/29 13:02:30;;;;;;;11.55;5.35;;;;;;;;;;5093476;28;20203;-87
2022/08/29 13:04:57;;;;;;;16.67;6.63;;;;;;;;;;5093456;28;20204;-87
2022/08/29 13:07:24;;;;;;;8.60;5.55;;;;;;;;;;5093827;28;20224;-86
2022/08/29 13:09:53;;;;;;;8.02;5.38;;;;;;;;;;5093349;28;20204;-87
2022/08/29 13:12:23;;;;;;;9.50;5.43;;;;;;;;;;5093762;28;20208;-88
2022/08/29 13:14:53;;;;;;;8.93;5.43;;;;;;;;;;5092870;28;20200;-88
2022/08/29 13:17:21;;;;;;;10.00;4.88;;;;;;;;;;5107759;28;20210;-87
2022/08/29 13:20:25;;;;;;;12.50;5.63;;;;;;;;;;5093396;28;20627;-88
2022/08/29 13:23:05;;;;;;;10.82;5.57;;;;;;;;;;5093262;28;20202;-87
2022/08/29 13:25:33;;;;;;;7.88;4.97;;;;;;;;;;5092982;28;20679;-88
2022/08/29 13:28:00;;;;;;;13.93;5.78;;;;;;;;;;5107779;28;20220;-88
2022/08/29 13:30:27;;;;;;;8.02;4.57;;;;;;;;;;5093145;28;20199;-88
2022/08/29 13:32:54;;;;;;;10.65;5.50;;;;;;;;;;5092923;28;20222;-88
2022/08/29 13:35:29;;;;;;;11.80;5.30;;;;;;;;;;5093293;28;20208;-88
2022/08/29 13:38:17;;;;;;;12.77;6.05;;;;;;;;;;5092929;28;20675;-88
2022/08/29 13:40:45;;;;;;;11.27;5.18;;;;;;;;;;5092561;28;20200;-87
2022/08/29 13:43:31;;;;;;;9.90;5.38;;;;;;;;;;5093029;28;20193;-88
2022/08/29 13:46:03;;;;;;;11.65;4.85;;;;;;;;;;5092543;28;20693;-87
2022/08/29 13:48:31;;;;;;;13.85;5.80;;;;;;;;;;5098355;28;20203;-88
2022/08/29 13:50:58;;;;;;;8.60;4.90;;;;;;;;;;5094291;28;20220;-87
2022/08/29 13:53:27;;;;;;;10.35;4.72;;;;;;;;;;5093100;28;20233;-86
2022/08/29 13:55:53;;;;;;;9.32;5.35;;;;;;;;;;5079449;28;20228;-90
2022/08/29 13:58:21;;;;;;;17.33;5.75;;;;;;;;;;5093046;28;20211;-90
2022/08/29 14:00:48;;;;;;;10.90;4.53;;;;;;;;;;5092227;28;20211;-89
2022/08/29 14:03:16;;;;;;;13.13;5.22;;;;;;;;;;5093380;28;20689;-91
2022/08/29 14:05:43;;;;;;;11.98;5.88;;;;;;;;;;5092821;28;20287;-89
2022/08/29 14:08:11;;;;;;;10.77;5.63;;;;;;;;;;5092676;28;20231;-89
2022/08/29 14:10:40;;;;;;;8.52;4.88;;;;;;;;;;5093061;28;20677;-88
2022/08/29 14:13:07;;;;;;;14.07;4.82;;;;;;;;;;5092375;28;20203;-88
2022/08/29 14:15:37;;;;;;;11.70;5.20;;;;;;;;;;5092228;28;20204;-89
2022/08/29 14:18:04;;;;;;;10.65;4.90;;;;;;;;;;5106098;28;20313;-88
2022/08/29 14:20:31;;;;;;;10.88;5.18;;;;;;;;;;5091804;28;20215;-88
2022/08/29 14:22:58;;;;;;;10.73;5.32;;;;;;;;;;5092064;28;20606;-87
2022/08/29 14:25:26;;;;;;;10.43;5.70;;;;;;;;;;5091363;28;20649;-87
2022/08/29 14:27:54;;;;;;;13.00;6.22;;;;;;;;;;5091268;28;20227;-89
2022/08/29 14:30:23;;;;;;;9.77;6.15;;;;;;;;;;5091377;28;20208;-87
2022/08/29 14:32:50;;;;;;;14.15;5.63;;;;;;;;;;5091242;28;20204;-82
2022/08/29 14:35:17;;;;;;;9.77;5.28;;;;;;;;;;5091772;28;20200;-88
2022/08/29 14:37:44;;;;;;;9.30;5.68;;;;;;;;;;5092142;28;20196;-88
2022/08/29 14:40:11;;;;;;;7.43;5.82;;;;;;;;;;5091820;28;20215;-88
2022/08/29 14:42:38;;;;;;;11.63;5.78;;;;;;;;;;5091882;28;20215;-89
2022/08/29 14:45:09;;;;;;;10.35;5.68;;;;;;;;;;5091214;28;20679;-88
2022/08/29 14:47:36;;;;;;;11.18;5.55;;;;;;;;;;5091736;28;20234;-87
2022/08/29 14:50:06;;;;;;;10.27;5.35;;;;;;;;;;5092037;28;20666;-88
2022/08/29 14:52:33;;;;;;;11.23;6.00;;;;;;;;;;5092264;28;20289;-89